Weather at Fazenda União Suzanópolis Airport

Public forecast

Using degrees Celsius for public forecast. Weather courtesy of forecast.io.

Closest aviation weather report (METAR) to Fazenda União Suzanópolis Airport

Report is more than 6 hours old.

Closest report is Araçatuba Airport, 52.6 nm (97.4 km) SE.

2024/07/19 17:00 (retrieved 20 hours ago)

SBAU 191700Z 10010KT CAVOK 30/10 Q1022

Closest aviation forecast (TAF) to Fazenda União Suzanópolis Airport

Closest forecast is Presidente Prudente Airport, 100.5 nm (186.1 km) S.

2024/07/20 12:33 (retrieved 32 minutes ago)

TAF SBDN 200810Z 2012/2024 12010KT CAVOK TN19/2012Z TX29/2017Z PROB30 2017/2019 08005KT RMK PGH